Time;durP1;ratioP1;P1;durP2;ratioP2;P2;SDS_P1;SDS_P2;PMS_P1;PMS_P2;Temp;Humidity;BMP_temperature;BMP_pressure;BME280_temperature;BME280_humidity;BME280_pressure;Samples;Min_cycle;Max_cycle;Signal;HPM_P1;HPM_P2
2021/09/17 00:02:04;;;;;;;14.97;11.97;;;12.70;99.90;;;;;;5158275;27;21142;-72
2021/09/17 00:04:31;;;;;;;15.17;11.57;;;12.70;99.90;;;;;;5158564;27;20528;-72
2021/09/17 00:06:59;;;;;;;16.40;12.80;;;12.80;99.90;;;;;;5158570;27;20526;-71
2021/09/17 00:09:26;;;;;;;14.93;11.70;;;12.80;99.90;;;;;;5158319;27;20458;-71
2021/09/17 00:11:54;;;;;;;14.20;12.70;;;12.80;99.90;;;;;;5158460;27;20511;-71
2021/09/17 00:14:20;;;;;;;15.07;13.10;;;12.70;99.90;;;;;;5158275;27;20446;-71
2021/09/17 00:16:47;;;;;;;13.90;11.80;;;12.90;99.90;;;;;;5158099;27;20487;-71
2021/09/17 00:19:14;;;;;;;13.33;11.93;;;13.00;99.90;;;;;;5157651;27;20478;-72
2021/09/17 00:21:41;;;;;;;21.70;13.30;;;13.00;99.90;;;;;;5157732;27;20461;-71
2021/09/17 00:24:09;;;;;;;13.57;12.17;;;12.80;99.90;;;;;;5157828;27;20566;-71
2021/09/17 00:26:36;;;;;;;15.43;12.70;;;12.70;99.90;;;;;;5157651;27;20550;-72
2021/09/17 00:29:03;;;;;;;14.63;11.20;;;12.70;99.90;;;;;;5159290;27;20439;-72
2021/09/17 00:31:30;;;;;;;13.00;11.43;;;12.70;99.90;;;;;;5159502;27;20454;-71
2021/09/17 00:33:57;;;;;;;13.90;11.87;;;12.90;99.90;;;;;;5159775;27;20508;-71
2021/09/17 00:36:23;;;;;;;15.10;12.40;;;12.90;99.90;;;;;;5157689;27;21023;-72
2021/09/17 00:38:50;;;;;;;13.00;11.60;;;13.00;99.90;;;;;;5157395;27;20534;-71
2021/09/17 00:41:18;;;;;;;15.97;11.20;;;13.00;99.90;;;;;;5157680;27;20498;-71
2021/09/17 00:43:46;;;;;;;14.87;12.63;;;13.00;99.90;;;;;;5160596;27;20487;-72
2021/09/17 00:46:13;;;;;;;13.77;12.00;;;13.10;99.90;;;;;;5160723;27;20509;-72
2021/09/17 00:48:40;;;;;;;13.00;11.60;;;13.10;99.90;;;;;;5160764;27;20538;-71
2021/09/17 00:51:07;;;;;;;13.37;11.97;;;13.10;99.90;;;;;;5158793;27;20897;-71
2021/09/17 00:53:34;;;;;;;15.03;12.20;;;13.00;99.90;;;;;;5159828;27;20511;-71
2021/09/17 00:56:02;;;;;;;15.77;14.00;;;13.00;99.90;;;;;;5159847;27;20483;-71
2021/09/17 00:58:31;;;;;;;13.40;11.70;;;13.10;99.90;;;;;;5159986;27;20440;-71
2021/09/17 01:00:58;;;;;;;13.73;12.20;;;13.10;99.90;;;;;;5160634;27;20973;-71
2021/09/17 01:03:28;;;;;;;14.37;11.13;;;13.30;99.90;;;;;;5158886;27;20482;-72
2021/09/17 01:05:54;;;;;;;15.10;12.10;;;13.20;99.90;;;;;;5159332;27;20559;-72
2021/09/17 01:08:22;;;;;;;16.10;11.30;;;13.30;99.90;;;;;;5159978;27;20519;-71
2021/09/17 01:10:49;;;;;;;16.80;10.80;;;13.30;99.90;;;;;;5159533;27;20448;-71
2021/09/17 01:13:18;;;;;;;14.53;12.07;;;13.30;99.90;;;;;;5156811;27;20436;-71
2021/09/17 01:15:46;;;;;;;15.40;11.80;;;13.40;99.90;;;;;;5156356;27;20455;-71
2021/09/17 01:18:13;;;;;;;15.43;11.40;;;13.40;99.90;;;;;;5156954;27;20526;-71
2021/09/17 01:20:40;;;;;;;12.37;10.60;;;13.40;99.90;;;;;;5157318;27;20475;-71
2021/09/17 01:23:08;;;;;;;13.47;11.87;;;13.30;99.90;;;;;;5155866;27;20574;-71
2021/09/17 01:25:35;;;;;;;15.70;11.67;;;13.30;99.90;;;;;;5156707;27;20562;-71
2021/09/17 01:28:02;;;;;;;14.60;11.23;;;13.20;99.90;;;;;;5156570;27;20534;-72
2021/09/17 01:30:29;;;;;;;14.13;11.33;;;13.40;99.90;;;;;;5156766;27;21121;-71
2021/09/17 01:32:56;;;;;;;13.80;11.33;;;13.40;99.90;;;;;;5156316;27;20518;-72
2021/09/17 01:35:24;;;;;;;14.50;10.70;;;13.40;99.90;;;;;;5156501;27;20459;-71
2021/09/17 01:37:51;;;;;;;14.30;12.17;;;13.40;99.90;;;;;;5156555;27;20511;-71
2021/09/17 01:40:20;;;;;;;14.10;11.77;;;13.50;99.90;;;;;;5156407;27;20448;-71
2021/09/17 01:42:47;;;;;;;13.50;12.10;;;13.50;99.90;;;;;;5156903;27;20570;-72
2021/09/17 01:45:15;;;;;;;14.50;11.67;;;13.50;99.90;;;;;;5156556;27;20919;-71
2021/09/17 01:47:42;;;;;;;13.60;10.90;;;13.40;99.90;;;;;;5156676;27;20531;-71
2021/09/17 01:50:09;;;;;;;15.20;12.13;;;13.30;99.90;;;;;;5157362;27;20481;-71
2021/09/17 01:52:36;;;;;;;15.37;12.70;;;13.40;99.90;;;;;;5156647;27;20945;-71
2021/09/17 01:55:05;;;;;;;16.03;10.90;;;13.50;99.90;;;;;;5157076;27;20466;-71
2021/09/17 01:57:34;;;;;;;12.83;11.30;;;13.60;99.90;;;;;;5156179;27;20454;-71
2021/09/17 02:00:01;;;;;;;17.47;12.30;;;13.60;99.90;;;;;;5156301;27;20782;-71
2021/09/17 02:02:28;;;;;;;13.97;10.73;;;13.70;99.90;;;;;;5155999;27;20450;-71
2021/09/17 02:04:55;;;;;;;15.13;11.50;;;13.70;99.90;;;;;;5155933;27;20501;-71
2021/09/17 02:07:21;;;;;;;15.10;10.97;;;13.50;99.90;;;;;;5156047;27;20530;-71
2021/09/17 02:09:49;;;;;;;13.07;11.50;;;13.50;99.90;;;;;;5155446;27;20538;-71
2021/09/17 02:12:15;;;;;;;13.77;11.07;;;13.40;99.90;;;;;;5155334;27;20452;-72
2021/09/17 02:14:44;;;;;;;12.60;10.57;;;13.40;99.90;;;;;;5155533;27;20442;-71
2021/09/17 02:17:10;;;;;;;14.70;11.43;;;13.30;99.90;;;;;;5156068;27;20854;-72
2021/09/17 02:19:37;;;;;;;12.20;10.87;;;13.20;99.90;;;;;;5155487;27;20443;-71
2021/09/17 02:22:05;;;;;;;11.93;10.20;;;13.20;99.90;;;;;;5154995;27;20557;-71
2021/09/17 02:24:32;;;;;;;13.33;10.97;;;13.30;99.90;;;;;;5155400;27;20481;-71
2021/09/17 02:26:59;;;;;;;16.37;11.30;;;13.40;99.90;;;;;;5155986;27;20856;-72
2021/09/17 02:29:26;;;;;;;12.87;10.83;;;13.40;99.90;;;;;;5156067;27;20504;-71
2021/09/17 02:31:54;;;;;;;14.87;12.07;;;13.50;99.90;;;;;;5156031;27;20470;-71
2021/09/17 02:34:21;;;;;;;13.27;11.30;;;13.50;99.90;;;;;;5156992;27;20530;-71
2021/09/17 02:36:48;;;;;;;11.50;10.23;;;13.50;99.90;;;;;;5155201;27;20543;-72
2021/09/17 02:39:15;;;;;;;15.93;11.50;;;13.40;99.90;;;;;;5155161;27;20531;-72
2021/09/17 02:41:43;;;;;;;11.83;10.50;;;13.40;99.90;;;;;;5155088;27;20465;-72
2021/09/17 02:44:10;;;;;;;11.63;10.13;;;13.40;99.90;;;;;;5155340;27;20480;-71
2021/09/17 02:46:38;;;;;;;12.97;11.40;;;13.50;99.90;;;;;;5155061;27;20468;-72
2021/09/17 02:49:06;;;;;;;12.57;11.20;;;13.40;99.90;;;;;;5155160;27;20537;-71
2021/09/17 02:51:33;;;;;;;13.33;11.93;;;13.40;99.90;;;;;;5156811;27;20447;-71
2021/09/17 02:54:00;;;;;;;13.47;10.70;;;13.40;99.90;;;;;;5156741;27;20506;-71
2021/09/17 02:56:27;;;;;;;13.87;11.60;;;13.40;99.90;;;;;;5158439;27;20464;-71
2021/09/17 02:58:54;;;;;;;15.83;11.40;;;13.50;99.90;;;;;;5157538;27;20431;-71
2021/09/17 03:01:21;;;;;;;12.53;11.03;;;13.50;99.90;;;;;;5155062;27;20572;-72
2021/09/17 03:03:48;;;;;;;12.53;11.27;;;13.50;99.90;;;;;;5155723;27;20479;-71
2021/09/17 03:06:16;;;;;;;13.47;11.77;;;13.50;99.90;;;;;;5156119;27;20464;-72
2021/09/17 03:08:43;;;;;;;11.73;10.20;;;13.50;99.90;;;;;;5156665;27;20446;-71
2021/09/17 03:11:10;;;;;;;11.60;10.40;;;13.50;99.90;;;;;;5156916;27;20447;-71
2021/09/17 03:13:37;;;;;;;14.43;10.10;;;13.50;99.90;;;;;;5156569;27;20512;-71
2021/09/17 03:16:05;;;;;;;14.20;11.60;;;13.50;99.90;;;;;;5157313;27;20531;-71
2021/09/17 03:18:32;;;;;;;15.60;10.73;;;13.50;99.90;;;;;;5157228;27;20628;-71
2021/09/17 03:20:59;;;;;;;11.37;9.83;;;13.50;99.90;;;;;;5157649;27;20894;-71
2021/09/17 03:23:28;;;;;;;14.10;11.70;;;13.50;99.90;;;;;;5156827;27;20566;-71
2021/09/17 03:25:55;;;;;;;14.07;10.53;;;13.50;99.90;;;;;;5157260;27;20498;-72
2021/09/17 03:28:22;;;;;;;12.30;11.00;;;13.50;99.90;;;;;;5159508;27;20497;-71
2021/09/17 03:30:49;;;;;;;12.90;10.20;;;13.50;99.90;;;;;;5160691;27;20507;-71
2021/09/17 03:33:16;;;;;;;13.23;10.57;;;13.50;99.90;;;;;;5160406;27;20534;-71
2021/09/17 03:35:44;;;;;;;15.13;11.80;;;13.50;99.90;;;;;;5160947;27;20455;-72
2021/09/17 03:38:12;;;;;;;14.30;10.67;;;13.60;99.90;;;;;;5161412;27;20450;-72
2021/09/17 03:40:41;;;;;;;11.83;10.63;;;13.50;99.90;;;;;;5161020;27;20494;-71
2021/09/17 03:43:08;;;;;;;13.10;11.13;;;13.60;99.90;;;;;;5160683;27;20462;-71
2021/09/17 03:45:36;;;;;;;12.57;11.30;;;13.60;99.90;;;;;;5160477;27;20528;-71
2021/09/17 03:48:06;;;;;;;16.07;12.97;;;13.60;99.90;;;;;;5160538;27;20454;-72
2021/09/17 03:50:33;;;;;;;12.70;11.40;;;13.60;99.90;;;;;;5161146;27;20435;-71
2021/09/17 03:53:00;;;;;;;16.80;11.93;;;13.60;99.90;;;;;;5161231;27;20948;-71
2021/09/17 03:55:27;;;;;;;11.63;10.03;;;13.50;99.90;;;;;;5161538;27;20550;-71
2021/09/17 03:57:55;;;;;;;12.80;10.70;;;13.50;99.90;;;;;;5161634;27;20522;-71
2021/09/17 04:00:22;;;;;;;13.13;10.40;;;13.50;99.90;;;;;;5159799;27;20439;-71
2021/09/17 04:02:49;;;;;;;17.83;10.20;;;13.60;99.90;;;;;;5159330;27;21115;-70
2021/09/17 04:05:16;;;;;;;16.97;11.20;;;13.60;99.90;;;;;;5154743;27;20984;-69
2021/09/17 04:07:44;;;;;;;13.10;10.67;;;13.50;99.90;;;;;;5155373;27;20441;-69
2021/09/17 04:10:13;;;;;;;12.73;11.20;;;13.60;99.90;;;;;;5155177;27;20508;-69
2021/09/17 04:12:40;;;;;;;20.17;11.90;;;13.50;99.90;;;;;;5162356;27;21036;-75
2021/09/17 04:15:09;;;;;;;13.33;10.90;;;13.60;99.90;;;;;;5157362;27;20512;-73
2021/09/17 04:17:36;;;;;;;12.27;10.93;;;13.50;99.90;;;;;;5160211;27;20446;-74
2021/09/17 04:20:04;;;;;;;15.77;11.90;;;13.30;99.90;;;;;;5151284;27;20423;-69
2021/09/17 04:22:31;;;;;;;14.67;11.00;;;13.30;99.90;;;;;;5151049;27;20504;-73
2021/09/17 04:24:58;;;;;;;12.97;10.10;;;13.20;99.90;;;;;;5156702;27;20479;-66
2021/09/17 04:27:25;;;;;;;14.53;12.10;;;13.30;99.90;;;;;;5158546;27;20450;-70
2021/09/17 04:29:53;;;;;;;13.73;11.23;;;13.30;99.90;;;;;;5158160;27;20432;-67
2021/09/17 04:32:21;;;;;;;15.77;12.10;;;13.20;99.90;;;;;;5156498;27;20899;-69
2021/09/17 04:34:49;;;;;;;14.47;12.20;;;13.20;99.90;;;;;;5156262;27;20500;-69
2021/09/17 04:37:17;;;;;;;14.63;11.93;;;13.00;99.90;;;;;;5157200;27;20527;-71
2021/09/17 04:39:44;;;;;;;14.33;11.70;;;12.90;99.90;;;;;;5155328;27;20439;-69
2021/09/17 04:42:10;;;;;;;14.83;13.03;;;12.80;99.90;;;;;;5157598;27;20833;-67
2021/09/17 04:44:38;;;;;;;14.20;12.27;;;12.80;99.90;;;;;;5158647;27;20475;-67
2021/09/17 04:47:05;;;;;;;12.13;10.57;;;12.80;99.90;;;;;;5157618;27;20455;-67
2021/09/17 04:49:34;;;;;;;13.97;12.27;;;12.70;99.90;;;;;;5157651;27;20530;-67
2021/09/17 04:52:01;;;;;;;13.80;12.27;;;12.60;99.90;;;;;;5157309;27;20455;-66
2021/09/17 04:54:28;;;;;;;12.50;11.10;;;12.60;99.90;;;;;;5156681;27;20530;-66
2021/09/17 04:56:54;;;;;;;14.30;12.00;;;12.40;99.90;;;;;;5156620;27;20522;-66
2021/09/17 04:59:21;;;;;;;16.57;12.67;;;12.30;99.90;;;;;;5156522;27;20454;-66
2021/09/17 05:01:48;;;;;;;15.23;12.43;;;12.30;99.90;;;;;;5156171;27;20526;-66
2021/09/17 05:04:15;;;;;;;15.20;13.57;;;12.30;99.90;;;;;;5154467;27;20980;-67
2021/09/17 05:06:43;;;;;;;16.40;14.30;;;12.20;99.90;;;;;;5134654;27;20468;-67
2021/09/17 05:09:10;;;;;;;17.33;12.73;;;12.20;99.90;;;;;;5125182;27;20456;-68
2021/09/17 05:11:37;;;;;;;17.20;14.07;;;12.20;99.90;;;;;;5135703;27;20512;-66
2021/09/17 05:14:04;;;;;;;24.40;14.60;;;12.30;99.90;;;;;;5122867;27;20844;-68
2021/09/17 05:16:32;;;;;;;22.87;14.10;;;12.30;99.90;;;;;;5134653;27;20641;-67
2021/09/17 05:18:59;;;;;;;16.97;13.40;;;12.30;99.90;;;;;;5135040;27;20974;-68
2021/09/17 05:21:26;;;;;;;20.23;14.57;;;12.30;99.90;;;;;;5135115;27;20440;-69
2021/09/17 05:23:55;;;;;;;17.53;14.63;;;12.30;99.90;;;;;;5131981;27;20850;-68
2021/09/17 05:26:21;;;;;;;16.73;14.93;;;12.40;99.90;;;;;;5132026;27;20460;-67
2021/09/17 05:28:48;;;;;;;15.03;13.00;;;12.50;99.90;;;;;;5130940;27;21128;-67
2021/09/17 05:31:15;;;;;;;17.53;13.20;;;12.60;99.90;;;;;;5132429;27;20452;-67
2021/09/17 05:33:42;;;;;;;18.60;13.67;;;12.70;99.90;;;;;;5132475;27;20539;-66
2021/09/17 05:36:09;;;;;;;17.00;14.20;;;12.80;99.90;;;;;;5132897;27;20456;-67
2021/09/17 05:38:36;;;;;;;19.30;14.37;;;12.90;99.90;;;;;;5134152;27;20448;-67
2021/09/17 05:41:04;;;;;;;17.13;13.43;;;12.90;99.90;;;;;;5132496;27;20452;-67
2021/09/17 05:43:31;;;;;;;15.77;13.20;;;13.00;99.90;;;;;;5132170;27;20448;-67
2021/09/17 05:45:58;;;;;;;15.50;12.97;;;13.10;99.90;;;;;;5132262;27;20484;-67
2021/09/17 05:48:25;;;;;;;14.27;12.60;;;13.10;99.90;;;;;;5132067;27;20445;-67
2021/09/17 05:50:52;;;;;;;14.70;13.17;;;13.20;99.90;;;;;;5131736;27;20820;-67
2021/09/17 05:53:19;;;;;;;19.27;13.60;;;13.20;99.90;;;;;;5132199;27;20448;-68
2021/09/17 05:55:46;;;;;;;19.40;12.93;;;13.30;99.90;;;;;;5132659;27;20476;-67
2021/09/17 05:58:14;;;;;;;19.13;13.40;;;13.40;99.90;;;;;;5132339;27;20535;-67
2021/09/17 06:00:41;;;;;;;15.50;13.07;;;13.50;99.90;;;;;;5132011;27;20547;-67
2021/09/17 06:03:09;;;;;;;16.07;13.77;;;13.60;99.90;;;;;;5131783;27;20448;-67
2021/09/17 06:05:36;;;;;;;14.43;12.83;;;13.70;99.90;;;;;;5132013;27;20511;-67
2021/09/17 06:08:03;;;;;;;14.70;13.07;;;13.70;99.90;;;;;;5132552;27;20440;-67
2021/09/17 06:10:30;;;;;;;14.60;13.10;;;13.80;99.90;;;;;;5132129;27;20445;-67
2021/09/17 06:12:57;;;;;;;14.87;13.37;;;13.90;99.90;;;;;;5131604;27;20592;-67
2021/09/17 06:15:25;;;;;;;14.83;12.23;;;14.00;99.90;;;;;;5132080;27;20457;-67
2021/09/17 06:17:52;;;;;;;13.00;11.80;;;14.10;99.90;;;;;;5131791;27;20447;-67
2021/09/17 06:20:19;;;;;;;12.60;11.40;;;14.20;99.90;;;;;;5131921;27;20531;-67
2021/09/17 06:22:46;;;;;;;14.30;11.70;;;14.40;99.90;;;;;;5131998;27;20451;-67
2021/09/17 06:25:15;;;;;;;17.47;12.10;;;14.50;99.90;;;;;;5132123;27;20476;-67
2021/09/17 06:27:42;;;;;;;13.90;10.97;;;14.60;99.90;;;;;;5132096;27;20450;-67
2021/09/17 06:30:09;;;;;;;15.30;10.90;;;14.70;99.90;;;;;;5131600;27;20835;-67
2021/09/17 06:32:38;;;;;;;13.67;11.27;;;14.80;99.90;;;;;;5131279;27;20444;-67
2021/09/17 06:35:06;;;;;;;12.40;11.10;;;14.90;99.90;;;;;;5131800;27;20460;-67
2021/09/17 06:37:33;;;;;;;13.80;11.07;;;14.90;99.90;;;;;;5131725;27;20531;-67
2021/09/17 06:40:00;;;;;;;11.53;10.33;;;15.10;99.90;;;;;;5131284;27;20799;-67
2021/09/17 06:42:27;;;;;;;11.23;9.93;;;15.10;99.90;;;;;;5131147;27;20910;-67
2021/09/17 06:44:54;;;;;;;11.40;10.00;;;15.20;99.90;;;;;;5131287;27;20949;-67
2021/09/17 06:47:20;;;;;;;12.13;10.80;;;15.30;99.90;;;;;;5131057;27;20451;-67
2021/09/17 06:49:48;;;;;;;12.97;11.10;;;15.40;99.90;;;;;;5131377;27;20478;-67
2021/09/17 06:52:15;;;;;;;12.20;10.80;;;15.50;99.90;;;;;;5130787;27;20945;-67
2021/09/17 06:54:42;;;;;;;16.37;12.10;;;15.60;99.90;;;;;;5130970;27;20548;-67
2021/09/17 06:57:09;;;;;;;12.17;10.97;;;15.70;99.90;;;;;;5130846;27;20436;-67
2021/09/17 06:59:42;;;;;;;13.30;11.60;;;15.90;99.90;;;;;;5130717;27;20451;-67
2021/09/17 07:02:09;;;;;;;11.83;10.47;;;15.90;99.90;;;;;;5130119;27;20448;-67
2021/09/17 07:04:36;;;;;;;16.03;11.60;;;16.00;99.90;;;;;;5130705;27;20479;-67
2021/09/17 07:07:04;;;;;;;11.47;10.37;;;16.10;99.90;;;;;;5130917;27;20543;-69
2021/09/17 07:09:31;;;;;;;13.07;11.40;;;16.20;99.90;;;;;;5130943;27;20450;-67
2021/09/17 07:11:58;;;;;;;12.53;11.17;;;16.30;99.90;;;;;;5130429;27;21009;-67
2021/09/17 07:14:25;;;;;;;14.60;10.70;;;16.40;99.90;;;;;;5130762;27;20441;-67
2021/09/17 07:16:52;;;;;;;12.33;11.00;;;16.50;99.90;;;;;;5131137;27;20504;-67
2021/09/17 07:19:20;;;;;;;17.40;12.17;;;16.60;99.90;;;;;;5131264;27;20468;-67
2021/09/17 07:21:47;;;;;;;16.10;11.40;;;16.80;99.90;;;;;;5131211;27;20833;-67
2021/09/17 07:24:15;;;;;;;13.77;11.83;;;17.00;99.90;;;;;;5130982;27;20440;-67
2021/09/17 07:26:42;;;;;;;12.97;11.40;;;16.80;99.90;;;;;;5131092;27;20543;-67
2021/09/17 07:29:08;;;;;;;15.33;10.47;;;16.70;99.90;;;;;;5131375;27;20817;-67
2021/09/17 07:31:35;;;;;;;13.43;10.97;;;16.80;99.90;;;;;;5130886;27;20448;-67
2021/09/17 07:34:02;;;;;;;13.37;11.27;;;17.00;99.90;;;;;;5131061;27;20528;-67
2021/09/17 07:36:29;;;;;;;11.63;10.37;;;17.10;99.90;;;;;;5130731;27;20459;-67
2021/09/17 07:38:56;;;;;;;10.90;9.80;;;17.10;99.90;;;;;;5130673;27;20527;-67
2021/09/17 07:41:24;;;;;;;12.90;10.10;;;17.10;99.90;;;;;;5130501;27;20969;-67
2021/09/17 07:43:51;;;;;;;12.37;11.00;;;17.20;99.90;;;;;;5130645;27;20448;-67
2021/09/17 07:46:18;;;;;;;15.67;10.53;;;17.30;99.90;;;;;;5130530;27;20519;-67
2021/09/17 07:48:44;;;;;;;12.07;10.43;;;17.30;99.90;;;;;;5130611;27;20470;-67
2021/09/17 07:51:11;;;;;;;13.63;10.70;;;17.20;99.90;;;;;;5130747;27;20468;-67
2021/09/17 07:53:38;;;;;;;11.60;10.50;;;17.30;99.90;;;;;;5130489;27;21117;-67
2021/09/17 07:56:05;;;;;;;12.77;10.10;;;17.50;99.90;;;;;;5130432;27;20902;-68
2021/09/17 07:58:33;;;;;;;13.50;11.37;;;17.70;99.90;;;;;;5130466;27;20451;-67
2021/09/17 08:01:00;;;;;;;12.30;10.73;;;17.80;99.90;;;;;;5130274;27;20520;-67
2021/09/17 08:03:31;;;;;;;12.67;10.97;;;17.90;99.90;;;;;;5130209;27;20194;-68
2021/09/17 08:05:59;;;;;;;10.93;9.83;;;17.70;99.90;;;;;;5130301;27;20491;-67
2021/09/17 08:08:26;;;;;;;12.37;9.73;;;18.00;99.90;;;;;;5130073;27;20836;-68
2021/09/17 08:10:53;;;;;;;11.63;10.43;;;18.20;99.90;;;;;;5130465;27;20448;-68
2021/09/17 08:13:20;;;;;;;11.73;10.53;;;18.40;99.90;;;;;;5131054;27;20436;-68
2021/09/17 08:15:48;;;;;;;12.17;9.37;;;18.50;99.90;;;;;;5133982;27;20983;-68
2021/09/17 08:18:15;;;;;;;11.20;9.90;;;18.50;99.90;;;;;;5134064;27;20444;-68
2021/09/17 08:20:48;;;;;;;10.73;9.77;;;18.70;99.90;;;;;;5134003;27;20436;-67
2021/09/17 08:23:15;;;;;;;17.20;12.03;;;18.70;99.90;;;;;;5133430;27;20481;-68
2021/09/17 08:25:43;;;;;;;15.00;10.37;;;18.70;99.90;;;;;;5133890;27;20491;-67
2021/09/17 08:28:10;;;;;;;11.67;10.47;;;18.90;99.90;;;;;;5134187;27;20916;-67
2021/09/17 08:30:37;;;;;;;13.40;11.23;;;18.70;99.90;;;;;;5133953;27;20536;-67
2021/09/17 08:33:05;;;;;;;12.83;11.00;;;18.60;99.90;;;;;;5133432;27;21028;-68
2021/09/17 08:35:32;;;;;;;12.20;11.00;;;18.70;99.90;;;;;;5133427;27;20456;-68
2021/09/17 08:37:58;;;;;;;12.73;9.63;;;18.80;99.90;;;;;;5133779;27;20447;-67
2021/09/17 08:40:28;;;;;;;11.07;9.73;;;19.00;99.90;;;;;;5133776;27;20460;-67
2021/09/17 08:42:55;;;;;;;11.60;10.40;;;19.20;99.90;;;;;;5133108;27;20582;-67
2021/09/17 08:45:23;;;;;;;16.50;12.00;;;19.40;99.90;;;;;;5133455;27;20583;-67
2021/09/17 08:47:50;;;;;;;13.40;12.10;;;19.20;99.90;;;;;;5133441;27;20457;-68
2021/09/17 08:50:20;;;;;;;12.90;11.60;;;19.30;99.90;;;;;;5133371;27;20802;-68
2021/09/17 08:52:46;;;;;;;13.23;11.17;;;19.50;99.90;;;;;;5133322;27;20445;-68
2021/09/17 08:55:14;;;;;;;15.90;11.70;;;19.60;99.90;;;;;;5133248;27;20973;-68
2021/09/17 08:57:43;;;;;;;16.20;12.90;;;19.40;99.90;;;;;;5133315;27;20476;-68
2021/09/17 09:00:38;;;;;;;16.57;11.90;;;19.40;99.90;;;;;;5133515;27;20456;-67
2021/09/17 09:03:04;;;;;;;13.20;11.87;;;19.60;99.90;;;;;;5133296;27;20443;-67
2021/09/17 09:05:34;;;;;;;12.00;10.80;;;19.60;99.90;;;;;;5133321;27;20579;-68
2021/09/17 09:08:02;;;;;;;14.03;12.63;;;19.80;99.90;;;;;;5133420;27;20452;-68
2021/09/17 09:10:30;;;;;;;12.43;11.13;;;20.00;99.90;;;;;;5133408;27;20529;-68
2021/09/17 09:12:58;;;;;;;12.67;11.17;;;20.10;99.90;;;;;;5132619;27;20850;-68
2021/09/17 09:15:26;;;;;;;13.07;11.87;;;20.50;99.90;;;;;;5133242;27;20967;-68
2021/09/17 09:17:56;;;;;;;13.07;11.77;;;20.50;99.90;;;;;;5133043;27;20452;-68
2021/09/17 09:20:27;;;;;;;12.00;10.80;;;20.70;99.90;;;;;;5133183;27;20475;-68
2021/09/17 09:23:11;;;;;;;12.50;11.30;;;21.00;99.90;;;;;;5132515;27;20447;-68
2021/09/17 09:25:53;;;;;;;12.83;11.53;;;20.70;99.90;;;;;;5131950;27;20491;-68
2021/09/17 09:28:22;;;;;;;13.07;11.77;;;20.50;99.90;;;;;;5133011;27;20451;-68
2021/09/17 09:30:51;;;;;;;13.53;12.33;;;20.20;99.90;;;;;;5132642;27;20447;-67
2021/09/17 09:33:26;;;;;;;12.33;11.13;;;20.40;99.90;;;;;;5132350;27;20442;-67
2021/09/17 09:36:01;;;;;;;13.53;11.03;;;20.60;99.90;;;;;;5132691;27;20880;-68
2021/09/17 09:38:48;;;;;;;12.13;10.63;;;20.50;99.90;;;;;;5132804;27;20526;-68
2021/09/17 09:41:17;;;;;;;13.43;11.67;;;20.90;99.90;;;;;;5132634;27;20448;-67
2021/09/17 09:43:51;;;;;;;11.13;10.03;;;21.30;99.90;;;;;;5132463;27;20504;-68
2021/09/17 09:46:27;;;;;;;11.53;10.53;;;21.70;99.90;;;;;;5132324;27;20481;-68
2021/09/17 09:49:09;;;;;;;12.57;11.23;;;21.90;99.90;;;;;;5132601;27;20445;-67
2021/09/17 09:51:38;;;;;;;13.20;11.90;;;22.10;99.90;;;;;;5132050;27;20480;-67
2021/09/17 09:54:07;;;;;;;12.97;11.67;;;21.70;99.90;;;;;;5132357;27;20447;-67
2021/09/17 09:56:36;;;;;;;13.37;12.03;;;21.50;99.90;;;;;;5132265;27;20977;-68
2021/09/17 09:59:05;;;;;;;12.50;11.27;;;21.30;99.90;;;;;;5132609;27;20965;-68
2021/09/17 10:01:36;;;;;;;12.73;11.60;;;21.30;99.90;;;;;;5131887;27;20440;-67
2021/09/17 10:04:05;;;;;;;13.07;11.80;;;21.60;99.90;;;;;;5132016;27;20447;-67
2021/09/17 10:06:34;;;;;;;12.23;11.03;;;21.60;99.90;;;;;;5131931;27;20476;-67
2021/09/17 10:09:02;;;;;;;13.23;11.67;;;21.70;99.90;;;;;;5131789;27;20950;-68
2021/09/17 10:11:30;;;;;;;15.73;11.30;;;21.70;99.90;;;;;;5131405;27;20448;-67
2021/09/17 10:14:01;;;;;;;12.37;11.27;;;21.70;99.90;;;;;;5131882;27;20523;-68
2021/09/17 10:16:29;;;;;;;12.13;10.93;;;21.90;99.90;;;;;;5131724;27;20801;-68
2021/09/17 10:18:56;;;;;;;12.43;11.23;;;22.00;99.90;;;;;;5131634;27;20448;-68
2021/09/17 10:21:58;;;;;;;12.77;11.50;;;22.50;99.90;;;;;;5131429;27;20831;-67
2021/09/17 10:24:42;;;;;;;14.03;12.47;;;22.50;99.90;;;;;;5131723;27;20456;-68
2021/09/17 10:27:20;;;;;;;13.13;11.80;;;22.50;99.90;;;;;;5131438;27;20479;-68
2021/09/17 10:29:56;;;;;;;13.27;11.83;;;22.00;99.90;;;;;;5131413;27;20501;-68
2021/09/17 10:32:41;;;;;;;11.37;10.33;;;22.40;99.90;;;;;;5131313;27;20444;-68
2021/09/17 10:35:11;;;;;;;10.67;9.67;;;22.90;99.90;;;;;;5131168;27;20994;-68
2021/09/17 10:38:06;;;;;;;11.30;10.20;;;23.30;99.90;;;;;;5130440;27;20523;-68
2021/09/17 10:40:52;;;;;;;13.63;11.70;;;23.20;99.90;;;;;;5131050;27;20444;-68
2021/09/17 10:43:39;;;;;;;11.30;10.20;;;23.40;99.90;;;;;;5131206;27;20480;-67
2021/09/17 10:46:07;;;;;;;12.00;10.90;;;23.60;99.90;;;;;;5131305;27;20531;-68
2021/09/17 10:48:55;;;;;;;11.63;10.53;;;23.80;99.90;;;;;;5131432;27;20828;-67
2021/09/17 10:51:34;;;;;;;11.53;10.43;;;24.10;99.90;;;;;;5131415;27;20498;-68
2021/09/17 10:54:03;;;;;;;10.30;9.30;;;23.90;99.90;;;;;;5131249;27;20448;-68
2021/09/17 10:57:02;;;;;;;11.13;10.13;;;23.70;99.90;;;;;;5131088;27;20965;-67
2021/09/17 10:59:44;;;;;;;11.17;10.17;;;23.90;99.90;;;;;;5131202;27;20456;-68
2021/09/17 11:02:11;;;;;;;10.47;9.47;;;24.10;99.90;;;;;;5131009;27;20454;-68
2021/09/17 11:04:40;;;;;;;11.50;10.50;;;24.00;99.90;;;;;;5130907;27;20447;-68
2021/09/17 11:07:35;;;;;;;11.53;10.43;;;23.80;99.90;;;;;;5130782;27;20484;-67
2021/09/17 11:10:05;;;;;;;10.77;9.70;;;23.20;99.90;;;;;;5131048;27;20437;-68
2021/09/17 11:12:35;;;;;;;10.20;9.20;;;22.80;99.90;;;;;;5130744;27;20444;-67
2021/09/17 11:15:06;;;;;;;9.00;8.20;;;23.30;99.90;;;;;;5130745;27;20470;-68
2021/09/17 11:17:44;;;;;;;9.33;8.50;;;24.20;99.90;;;;;;5130818;27;20441;-68
2021/09/17 11:20:14;;;;;;;36.30;12.40;;;25.00;99.90;;;;;;5130808;27;20448;-68
2021/09/17 11:22:48;;;;;;;8.53;7.70;;;25.00;99.90;;;;;;5130604;27;20459;-67
2021/09/17 11:25:20;;;;;;;10.97;8.33;;;25.00;99.90;;;;;;5130827;27;20567;-67
2021/09/17 11:27:49;;;;;;;11.30;8.37;;;25.20;99.20;;;;;;5130647;27;20527;-68
2021/09/17 11:30:16;;;;;;;10.37;8.10;;;26.10;98.30;;;;;;5130665;27;20436;-68
2021/09/17 11:32:43;;;;;;;8.27;6.97;;;26.60;96.30;;;;;;5130135;27;20444;-68
2021/09/17 11:35:12;;;;;;;8.87;7.97;;;26.60;97.70;;;;;;5130587;27;20456;-68
2021/09/17 11:37:39;;;;;;;11.13;7.70;;;26.50;96.10;;;;;;5130601;27;20437;-68
2021/09/17 11:40:08;;;;;;;7.10;6.40;;;26.80;95.40;;;;;;5130916;27;20539;-68
2021/09/17 11:42:35;;;;;;;6.00;5.00;;;27.00;97.10;;;;;;5130993;27;20550;-68
2021/09/17 11:45:15;;;;;;;6.40;5.20;;;27.50;94.20;;;;;;5127574;27;20973;-68
2021/09/17 11:47:46;;;;;;;4.57;3.87;;;27.50;95.30;;;;;;5129721;27;20512;-67
2021/09/17 11:50:15;;;;;;;3.87;3.40;;;27.80;92.10;;;;;;5133630;27;20523;-69
2021/09/17 11:52:44;;;;;;;4.00;3.60;;;28.50;90.20;;;;;;5133773;27;20449;-68
2021/09/17 11:55:18;;;;;;;4.87;4.10;;;29.70;88.40;;;;;;5134453;27;20468;-69
2021/09/17 11:57:47;;;;;;;4.03;3.00;;;30.40;86.60;;;;;;5134109;27;20442;-68
2021/09/17 12:00:17;;;;;;;5.07;3.00;;;31.10;81.20;;;;;;5124062;27;20440;-68
2021/09/17 12:02:46;;;;;;;3.03;1.90;;;31.20;76.30;;;;;;5122402;27;20955;-68
2021/09/17 12:05:16;;;;;;;3.30;2.90;;;31.30;76.10;;;;;;5121529;27;20465;-68
2021/09/17 12:07:44;;;;;;;3.67;2.17;;;30.60;77.50;;;;;;5124182;27;20484;-68
2021/09/17 12:10:13;;;;;;;2.70;1.90;;;30.80;74.70;;;;;;5121618;27;20867;-70
2021/09/17 12:12:41;;;;;;;3.20;2.10;;;31.80;66.40;;;;;;5120714;27;20793;-67
2021/09/17 12:15:10;;;;;;;2.30;1.50;;;32.30;62.10;;;;;;5113468;28;20564;-67
2021/09/17 12:17:54;;;;;;;3.80;2.27;;;33.00;66.70;;;;;;5113470;27;20445;-68
2021/09/17 12:20:22;;;;;;;5.13;3.93;;;34.30;62.00;;;;;;5112765;28;20443;-66
2021/09/17 12:22:57;;;;;;;5.33;4.83;;;34.50;59.50;;;;;;5113079;28;20441;-67
2021/09/17 12:25:30;;;;;;;4.70;4.30;;;34.20;63.40;;;;;;5113597;28;20461;-68
2021/09/17 12:28:01;;;;;;;5.13;3.63;;;33.70;66.40;;;;;;5113801;28;20522;-65
2021/09/17 12:30:31;;;;;;;3.43;2.30;;;31.80;62.90;;;;;;5113116;28;20935;-65
2021/09/17 12:33:11;;;;;;;4.73;2.80;;;29.10;62.50;;;;;;5112851;28;20460;-64
2021/09/17 12:35:39;;;;;;;7.83;5.00;;;27.90;73.30;;;;;;5112840;28;20463;-65
2021/09/17 12:38:07;;;;;;;7.00;5.07;;;26.50;79.30;;;;;;5114048;27;20463;-67
2021/09/17 12:40:37;;;;;;;6.43;5.53;;;25.50;87.20;;;;;;5128903;27;20500;-67